sensor_id;sensor_type;location;lat;lon;timestamp;pressure;altitude;pressure_sealevel;temperature;humidity
70745;BME280;59284;31.390;34.904;2022-11-24T00:01:07;94717.63;;;22.94;100.00
70745;BME280;59284;31.390;34.904;2022-11-24T00:03:34;94701.41;;;22.52;100.00
70745;BME280;59284;31.390;34.904;2022-11-24T00:06:07;94702.59;;;23.09;100.00
70745;BME280;59284;31.390;34.904;2022-11-24T00:08:38;94698.22;;;22.76;100.00
70745;BME280;59284;31.390;34.904;2022-11-24T00:11:13;94696.25;;;22.66;100.00
70745;BME280;59284;31.390;34.904;2022-11-24T00:13:39;94693.97;;;22.21;100.00
70745;BME280;59284;31.390;34.904;2022-11-24T00:16:24;94691.69;;;22.63;100.00
70745;BME280;59284;31.390;34.904;2022-11-24T00:18:53;94694.09;;;22.35;100.00
70745;BME280;59284;31.390;34.904;2022-11-24T00:21:20;94687.59;;;21.89;100.00
70745;BME280;59284;31.390;34.904;2022-11-24T00:23:47;94692.94;;;22.36;100.00
70745;BME280;59284;31.390;34.904;2022-11-24T00:26:14;94693.28;;;21.91;100.00
70745;BME280;59284;31.390;34.904;2022-11-24T00:28:42;94689.31;;;22.07;100.00
70745;BME280;59284;31.390;34.904;2022-11-24T00:31:17;94696.00;;;22.38;100.00
70745;BME280;59284;31.390;34.904;2022-11-24T00:33:45;94692.66;;;22.04;100.00
70745;BME280;59284;31.390;34.904;2022-11-24T00:36:12;94697.63;;;22.09;100.00
70745;BME280;59284;31.390;34.904;2022-11-24T00:38:38;94699.19;;;21.81;100.00
70745;BME280;59284;31.390;34.904;2022-11-24T00:41:03;94698.03;;;22.15;100.00
70745;BME280;59284;31.390;34.904;2022-11-24T00:43:30;94691.66;;;21.83;100.00
70745;BME280;59284;31.390;34.904;2022-11-24T00:45:55;94695.97;;;22.34;100.00
70745;BME280;59284;31.390;34.904;2022-11-24T00:48:21;94698.81;;;22.59;100.00
70745;BME280;59284;31.390;34.904;2022-11-24T00:51:02;94694.44;;;22.74;100.00
70745;BME280;59284;31.390;34.904;2022-11-24T00:53:28;94696.16;;;22.59;100.00
70745;BME280;59284;31.390;34.904;2022-11-24T00:55:55;94697.78;;;22.67;100.00
70745;BME280;59284;31.390;34.904;2022-11-24T00:58:22;94694.28;;;23.11;100.00
70745;BME280;59284;31.390;34.904;2022-11-24T01:01:25;94692.06;;;23.20;100.00
70745;BME280;59284;31.390;34.904;2022-11-24T01:03:51;94692.59;;;22.81;100.00
70745;BME280;59284;31.390;34.904;2022-11-24T01:06:19;94681.91;;;23.25;100.00
70745;BME280;59284;31.390;34.904;2022-11-24T01:08:46;94684.44;;;23.08;100.00
70745;BME280;59284;31.390;34.904;2022-11-24T01:11:15;94673.94;;;23.22;100.00
70745;BME280;59284;31.390;34.904;2022-11-24T01:13:43;94685.44;;;22.89;100.00
70745;BME280;59284;31.390;34.904;2022-11-24T01:16:36;94673.75;;;23.55;100.00
70745;BME280;59284;31.390;34.904;2022-11-24T01:19:03;94669.59;;;22.42;100.00
70745;BME280;59284;31.390;34.904;2022-11-24T01:21:28;94669.81;;;22.66;100.00
70745;BME280;59284;31.390;34.904;2022-11-24T01:23:54;94678.63;;;22.84;100.00
70745;BME280;59284;31.390;34.904;2022-11-24T01:26:21;94681.78;;;23.04;100.00
70745;BME280;59284;31.390;34.904;2022-11-24T01:29:00;94686.91;;;22.35;100.00
70745;BME280;59284;31.390;34.904;2022-11-24T01:31:29;94683.06;;;22.26;100.00
70745;BME280;59284;31.390;34.904;2022-11-24T01:33:55;94682.56;;;22.57;100.00
70745;BME280;59284;31.390;34.904;2022-11-24T01:36:21;94686.53;;;21.97;100.00
70745;BME280;59284;31.390;34.904;2022-11-24T01:38:47;94686.41;;;21.53;100.00
70745;BME280;59284;31.390;34.904;2022-11-24T01:41:21;94680.41;;;21.56;100.00
70745;BME280;59284;31.390;34.904;2022-11-24T01:43:48;94676.16;;;22.58;100.00
70745;BME280;59284;31.390;34.904;2022-11-24T01:46:33;94667.06;;;23.10;100.00
70745;BME280;59284;31.390;34.904;2022-11-24T01:49:17;94662.50;;;23.07;100.00
70745;BME280;59284;31.390;34.904;2022-11-24T01:52:00;94648.13;;;23.01;100.00
70745;BME280;59284;31.390;34.904;2022-11-24T01:54:37;94654.03;;;22.80;100.00
70745;BME280;59284;31.390;34.904;2022-11-24T01:57:15;94643.28;;;23.14;100.00
70745;BME280;59284;31.390;34.904;2022-11-24T01:59:43;94652.06;;;22.23;100.00
70745;BME280;59284;31.390;34.904;2022-11-24T02:02:12;94646.50;;;21.91;100.00
70745;BME280;59284;31.390;34.904;2022-11-24T02:04:40;94650.38;;;22.01;100.00
70745;BME280;59284;31.390;34.904;2022-11-24T02:07:07;94650.06;;;22.53;100.00
70745;BME280;59284;31.390;34.904;2022-11-24T02:09:39;94641.44;;;22.63;100.00
70745;BME280;59284;31.390;34.904;2022-11-24T02:12:07;94642.34;;;22.30;100.00
70745;BME280;59284;31.390;34.904;2022-11-24T02:14:35;94647.88;;;22.62;100.00
70745;BME280;59284;31.390;34.904;2022-11-24T02:17:01;94646.00;;;22.19;100.00
70745;BME280;59284;31.390;34.904;2022-11-24T02:27:50;94659.84;;;23.03;100.00
70745;BME280;59284;31.390;34.904;2022-11-24T02:30:17;94651.25;;;23.21;100.00
70745;BME280;59284;31.390;34.904;2022-11-24T02:32:42;94658.00;;;23.11;100.00
70745;BME280;59284;31.390;34.904;2022-11-24T02:35:11;94673.59;;;22.25;100.00
70745;BME280;59284;31.390;34.904;2022-11-24T02:37:37;94666.69;;;22.57;100.00
70745;BME280;59284;31.390;34.904;2022-11-24T02:40:03;94660.28;;;22.11;100.00
70745;BME280;59284;31.390;34.904;2022-11-24T02:42:33;94661.34;;;22.06;100.00
70745;BME280;59284;31.390;34.904;2022-11-24T02:45:03;94660.41;;;21.85;100.00
70745;BME280;59284;31.390;34.904;2022-11-24T02:47:28;94662.66;;;22.23;100.00
70745;BME280;59284;31.390;34.904;2022-11-24T02:49:54;94669.22;;;21.99;100.00
70745;BME280;59284;31.390;34.904;2022-11-24T02:52:20;94667.00;;;22.05;100.00
70745;BME280;59284;31.390;34.904;2022-11-24T02:54:46;94669.66;;;22.52;100.00
70745;BME280;59284;31.390;34.904;2022-11-24T02:57:12;94671.19;;;22.53;100.00
70745;BME280;59284;31.390;34.904;2022-11-24T02:59:38;94681.91;;;22.67;100.00
70745;BME280;59284;31.390;34.904;2022-11-24T03:02:03;94675.34;;;22.07;100.00
70745;BME280;59284;31.390;34.904;2022-11-24T03:04:29;94674.34;;;22.66;100.00
70745;BME280;59284;31.390;34.904;2022-11-24T03:06:55;94664.72;;;22.98;100.00
70745;BME280;59284;31.390;34.904;2022-11-24T03:09:21;94675.72;;;22.53;100.00
70745;BME280;59284;31.390;34.904;2022-11-24T03:11:46;94673.28;;;22.30;100.00
70745;BME280;59284;31.390;34.904;2022-11-24T03:14:14;94676.44;;;22.50;100.00
70745;BME280;59284;31.390;34.904;2022-11-24T03:16:40;94677.06;;;22.76;100.00
70745;BME280;59284;31.390;34.904;2022-11-24T03:19:05;94677.72;;;23.28;100.00
70745;BME280;59284;31.390;34.904;2022-11-24T03:21:31;94694.75;;;22.65;100.00
70745;BME280;59284;31.390;34.904;2022-11-24T03:23:57;94689.13;;;22.30;100.00
70745;BME280;59284;31.390;34.904;2022-11-24T03:26:24;94680.09;;;23.40;100.00
70745;BME280;59284;31.390;34.904;2022-11-24T03:28:53;94672.91;;;22.75;100.00
70745;BME280;59284;31.390;34.904;2022-11-24T03:31:20;94691.09;;;21.66;100.00
70745;BME280;59284;31.390;34.904;2022-11-24T03:33:45;94687.31;;;22.81;100.00
70745;BME280;59284;31.390;34.904;2022-11-24T03:36:11;94681.88;;;23.18;100.00
70745;BME280;59284;31.390;34.904;2022-11-24T03:38:38;94695.53;;;22.69;100.00
70745;BME280;59284;31.390;34.904;2022-11-24T03:41:05;94702.75;;;22.32;100.00
70745;BME280;59284;31.390;34.904;2022-11-24T03:43:31;94706.22;;;22.43;100.00
70745;BME280;59284;31.390;34.904;2022-11-24T03:45:57;94710.78;;;22.90;100.00
70745;BME280;59284;31.390;34.904;2022-11-24T03:48:24;94706.31;;;21.77;100.00
70745;BME280;59284;31.390;34.904;2022-11-24T03:50:57;94693.00;;;23.52;100.00
70745;BME280;59284;31.390;34.904;2022-11-24T03:53:25;94711.28;;;23.06;100.00
70745;BME280;59284;31.390;34.904;2022-11-24T03:55:51;94696.72;;;21.95;100.00
70745;BME280;59284;31.390;34.904;2022-11-24T03:58:17;94714.28;;;23.04;100.00
70745;BME280;59284;31.390;34.904;2022-11-24T04:00:47;94716.09;;;22.93;100.00
70745;BME280;59284;31.390;34.904;2022-11-24T04:03:12;94713.91;;;22.59;100.00
70745;BME280;59284;31.390;34.904;2022-11-24T04:05:38;94714.53;;;22.89;100.00
70745;BME280;59284;31.390;34.904;2022-11-24T04:08:04;94718.84;;;23.08;100.00
70745;BME280;59284;31.390;34.904;2022-11-24T04:10:35;94710.41;;;23.49;100.00
70745;BME280;59284;31.390;34.904;2022-11-24T04:13:02;94712.31;;;22.94;100.00
70745;BME280;59284;31.390;34.904;2022-11-24T04:15:28;94708.75;;;22.29;100.00
70745;BME280;59284;31.390;34.904;2022-11-24T04:17:54;94704.78;;;22.49;100.00
70745;BME280;59284;31.390;34.904;2022-11-24T04:20:20;94703.63;;;21.73;100.00
70745;BME280;59284;31.390;34.904;2022-11-24T04:22:46;94706.97;;;22.00;100.00
70745;BME280;59284;31.390;34.904;2022-11-24T04:25:14;94708.59;;;22.15;100.00
70745;BME280;59284;31.390;34.904;2022-11-24T04:27:42;94711.75;;;22.27;100.00
70745;BME280;59284;31.390;34.904;2022-11-24T04:30:08;94712.28;;;22.44;100.00
70745;BME280;59284;31.390;34.904;2022-11-24T04:32:35;94719.28;;;22.62;100.00
70745;BME280;59284;31.390;34.904;2022-11-24T04:35:01;94721.28;;;22.79;100.00
70745;BME280;59284;31.390;34.904;2022-11-24T04:37:26;94729.97;;;22.76;100.00
70745;BME280;59284;31.390;34.904;2022-11-24T04:39:52;94725.63;;;22.58;100.00
70745;BME280;59284;31.390;34.904;2022-11-24T04:42:19;94735.13;;;23.17;100.00
70745;BME280;59284;31.390;34.904;2022-11-24T04:44:47;94740.44;;;23.17;100.00
70745;BME280;59284;31.390;34.904;2022-11-24T04:47:16;94735.06;;;23.67;100.00
70745;BME280;59284;31.390;34.904;2022-11-24T04:49:51;94735.59;;;22.75;100.00
70745;BME280;59284;31.390;34.904;2022-11-24T04:52:22;94721.53;;;23.87;100.00
70745;BME280;59284;31.390;34.904;2022-11-24T04:54:50;94736.72;;;23.28;100.00
70745;BME280;59284;31.390;34.904;2022-11-24T04:57:19;94723.16;;;24.19;100.00
70745;BME280;59284;31.390;34.904;2022-11-24T04:59:45;94729.78;;;23.06;100.00
70745;BME280;59284;31.390;34.904;2022-11-24T05:02:11;94723.78;;;23.16;100.00
70745;BME280;59284;31.390;34.904;2022-11-24T05:04:36;94723.94;;;23.37;100.00
70745;BME280;59284;31.390;34.904;2022-11-24T05:07:02;94728.81;;;23.32;100.00
70745;BME280;59284;31.390;34.904;2022-11-24T05:09:28;94731.84;;;22.79;100.00
70745;BME280;59284;31.390;34.904;2022-11-24T05:11:54;94733.72;;;23.30;100.00
70745;BME280;59284;31.390;34.904;2022-11-24T05:14:19;94724.88;;;23.73;100.00
70745;BME280;59284;31.390;34.904;2022-11-24T05:16:45;94734.16;;;24.57;100.00
70745;BME280;59284;31.390;34.904;2022-11-24T05:19:11;94740.13;;;23.29;100.00
70745;BME280;59284;31.390;34.904;2022-11-24T05:21:37;94732.50;;;23.92;100.00
70745;BME280;59284;31.390;34.904;2022-11-24T05:24:03;94728.41;;;24.09;100.00
70745;BME280;59284;31.390;34.904;2022-11-24T05:26:29;94732.50;;;23.92;100.00
70745;BME280;59284;31.390;34.904;2022-11-24T05:28:55;94741.44;;;22.98;100.00
70745;BME280;59284;31.390;34.904;2022-11-24T05:31:20;94731.41;;;24.04;100.00
70745;BME280;59284;31.390;34.904;2022-11-24T05:33:46;94732.78;;;23.69;100.00
70745;BME280;59284;31.390;34.904;2022-11-24T05:36:12;94748.28;;;23.60;100.00
70745;BME280;59284;31.390;34.904;2022-11-24T05:38:57;94745.50;;;24.22;100.00
70745;BME280;59284;31.390;34.904;2022-11-24T05:41:23;94747.78;;;24.30;100.00
70745;BME280;59284;31.390;34.904;2022-11-24T05:43:49;94744.69;;;24.11;100.00
70745;BME280;59284;31.390;34.904;2022-11-24T05:46:14;94760.34;;;22.96;100.00
70745;BME280;59284;31.390;34.904;2022-11-24T05:48:40;94765.91;;;22.84;100.00
70745;BME280;59284;31.390;34.904;2022-11-24T05:51:06;94766.53;;;22.67;100.00
70745;BME280;59284;31.390;34.904;2022-11-24T05:53:31;94764.59;;;23.08;100.00
70745;BME280;59284;31.390;34.904;2022-11-24T05:55:57;94760.22;;;22.82;100.00
70745;BME280;59284;31.390;34.904;2022-11-24T05:58:22;94760.06;;;23.77;100.00
70745;BME280;59284;31.390;34.904;2022-11-24T06:00:48;94762.94;;;24.37;100.00
70745;BME280;59284;31.390;34.904;2022-11-24T06:03:14;94761.41;;;24.25;100.00
70745;BME280;59284;31.390;34.904;2022-11-24T06:05:44;94762.22;;;25.21;100.00
70745;BME280;59284;31.390;34.904;2022-11-24T06:08:11;94766.06;;;23.05;100.00
70745;BME280;59284;31.390;34.904;2022-11-24T06:10:36;94781.38;;;22.42;100.00
70745;BME280;59284;31.390;34.904;2022-11-24T06:13:05;94768.97;;;23.41;100.00
70745;BME280;59284;31.390;34.904;2022-11-24T06:15:33;94769.50;;;23.67;100.00
70745;BME280;59284;31.390;34.904;2022-11-24T06:17:58;94767.03;;;24.06;100.00
70745;BME280;59284;31.390;34.904;2022-11-24T06:20:24;94759.59;;;24.72;100.00
70745;BME280;59284;31.390;34.904;2022-11-24T06:22:52;94767.59;;;25.00;100.00
70745;BME280;59284;31.390;34.904;2022-11-24T06:25:17;94772.06;;;25.38;100.00
70745;BME280;59284;31.390;34.904;2022-11-24T06:27:44;94772.09;;;25.31;100.00
70745;BME280;59284;31.390;34.904;2022-11-24T06:30:10;94766.38;;;24.62;100.00
70745;BME280;59284;31.390;34.904;2022-11-24T06:32:36;94779.66;;;25.54;100.00
70745;BME280;59284;31.390;34.904;2022-11-24T06:35:03;94775.88;;;25.37;100.00
70745;BME280;59284;31.390;34.904;2022-11-24T06:37:29;94769.06;;;24.59;100.00
70745;BME280;59284;31.390;34.904;2022-11-24T06:39:54;94765.59;;;24.37;100.00
70745;BME280;59284;31.390;34.904;2022-11-24T06:42:21;94767.56;;;25.07;100.00
70745;BME280;59284;31.390;34.904;2022-11-24T06:44:47;94769.06;;;23.55;100.00
70745;BME280;59284;31.390;34.904;2022-11-24T06:47:14;94769.25;;;24.04;100.00
70745;BME280;59284;31.390;34.904;2022-11-24T06:49:40;94776.47;;;22.81;100.00
70745;BME280;59284;31.390;34.904;2022-11-24T06:52:05;94773.72;;;22.33;100.00
70745;BME280;59284;31.390;34.904;2022-11-24T06:54:31;94775.69;;;22.77;100.00
70745;BME280;59284;31.390;34.904;2022-11-24T06:56:58;94782.72;;;23.10;100.00
70745;BME280;59284;31.390;34.904;2022-11-24T06:59:24;94785.72;;;23.59;100.00
70745;BME280;59284;31.390;34.904;2022-11-24T07:01:51;94785.03;;;23.69;100.00
70745;BME280;59284;31.390;34.904;2022-11-24T07:04:17;94784.16;;;24.37;100.00
70745;BME280;59284;31.390;34.904;2022-11-24T07:06:43;94788.38;;;25.33;100.00
70745;BME280;59284;31.390;34.904;2022-11-24T07:09:10;94785.69;;;25.65;100.00
70745;BME280;59284;31.390;34.904;2022-11-24T07:11:37;94779.59;;;27.13;100.00
70745;BME280;59284;31.390;34.904;2022-11-24T07:14:04;94773.19;;;27.51;100.00
70745;BME280;59284;31.390;34.904;2022-11-24T07:16:30;94779.28;;;27.07;100.00
70745;BME280;59284;31.390;34.904;2022-11-24T07:18:56;94769.38;;;28.50;100.00
70745;BME280;59284;31.390;34.904;2022-11-24T07:21:24;94785.63;;;25.97;100.00
70745;BME280;59284;31.390;34.904;2022-11-24T07:23:52;94785.66;;;25.79;100.00
70745;BME280;59284;31.390;34.904;2022-11-24T07:26:18;94793.31;;;25.49;100.00
70745;BME280;59284;31.390;34.904;2022-11-24T07:28:44;94792.97;;;25.01;100.00
70745;BME280;59284;31.390;34.904;2022-11-24T07:31:16;94781.59;;;24.97;100.00
70745;BME280;59284;31.390;34.904;2022-11-24T07:33:47;94789.94;;;24.88;100.00
70745;BME280;59284;31.390;34.904;2022-11-24T07:36:12;94794.09;;;25.39;100.00
70745;BME280;59284;31.390;34.904;2022-11-24T07:38:38;94788.75;;;24.75;100.00
70745;BME280;59284;31.390;34.904;2022-11-24T07:41:08;94784.97;;;25.40;100.00
70745;BME280;59284;31.390;34.904;2022-11-24T07:43:35;94783.44;;;24.65;100.00
70745;BME280;59284;31.390;34.904;2022-11-24T07:46:06;94773.75;;;26.19;100.00
70745;BME280;59284;31.390;34.904;2022-11-24T07:48:33;94781.78;;;26.05;100.00
70745;BME280;59284;31.390;34.904;2022-11-24T07:50:59;94760.72;;;26.38;100.00
70745;BME280;59284;31.390;34.904;2022-11-24T07:53:25;94778.53;;;24.56;100.00
70745;BME280;59284;31.390;34.904;2022-11-24T07:55:59;94766.03;;;26.42;100.00
70745;BME280;59284;31.390;34.904;2022-11-24T07:58:29;94775.88;;;27.07;100.00
70745;BME280;59284;31.390;34.904;2022-11-24T08:00:55;94780.41;;;25.61;100.00
70745;BME280;59284;31.390;34.904;2022-11-24T08:03:23;94781.44;;;26.75;100.00
70745;BME280;59284;31.390;34.904;2022-11-24T08:05:57;94774.34;;;25.64;100.00
70745;BME280;59284;31.390;34.904;2022-11-24T08:08:23;94776.44;;;26.15;100.00
70745;BME280;59284;31.390;34.904;2022-11-24T08:10:49;94763.84;;;27.33;100.00
70745;BME280;59284;31.390;34.904;2022-11-24T08:13:15;94772.03;;;27.11;100.00
70745;BME280;59284;31.390;34.904;2022-11-24T08:15:41;94763.97;;;29.30;100.00
70745;BME280;59284;31.390;34.904;2022-11-24T08:18:07;94753.13;;;31.64;100.00
70745;BME280;59284;31.390;34.904;2022-11-24T08:20:32;94746.75;;;31.30;100.00
70745;BME280;59284;31.390;34.904;2022-11-24T08:22:59;94759.88;;;27.85;100.00
70745;BME280;59284;31.390;34.904;2022-11-24T08:25:25;94753.56;;;26.87;100.00
70745;BME280;59284;31.390;34.904;2022-11-24T08:27:57;94757.28;;;25.44;100.00
70745;BME280;59284;31.390;34.904;2022-11-24T08:30:23;94764.13;;;25.17;100.00
70745;BME280;59284;31.390;34.904;2022-11-24T08:32:48;94754.25;;;24.58;100.00
70745;BME280;59284;31.390;34.904;2022-11-24T08:35:14;94754.25;;;24.68;100.00
70745;BME280;59284;31.390;34.904;2022-11-24T08:37:40;94756.44;;;25.75;100.00
70745;BME280;59284;31.390;34.904;2022-11-24T08:40:06;94743.94;;;25.69;100.00
70745;BME280;59284;31.390;34.904;2022-11-24T08:42:32;94741.75;;;25.15;100.00
70745;BME280;59284;31.390;34.904;2022-11-24T08:44:58;94736.97;;;27.17;100.00
70745;BME280;59284;31.390;34.904;2022-11-24T08:47:23;94732.31;;;27.65;100.00
70745;BME280;59284;31.390;34.904;2022-11-24T08:49:49;94719.00;;;27.24;100.00
70745;BME280;59284;31.390;34.904;2022-11-24T08:52:15;94727.38;;;25.01;100.00
70745;BME280;59284;31.390;34.904;2022-11-24T08:54:40;94730.44;;;24.79;100.00
70745;BME280;59284;31.390;34.904;2022-11-24T08:57:09;94732.63;;;25.40;100.00
70745;BME280;59284;31.390;34.904;2022-11-24T08:59:35;94716.75;;;27.60;100.00
70745;BME280;59284;31.390;34.904;2022-11-24T09:02:01;94723.53;;;25.45;100.00
70745;BME280;59284;31.390;34.904;2022-11-24T09:04:26;94713.00;;;26.07;100.00
70745;BME280;59284;31.390;34.904;2022-11-24T09:06:52;94714.97;;;25.96;100.00
70745;BME280;59284;31.390;34.904;2022-11-24T09:09:18;94710.66;;;28.50;100.00
70745;BME280;59284;31.390;34.904;2022-11-24T09:11:46;94709.28;;;29.74;100.00
70745;BME280;59284;31.390;34.904;2022-11-24T09:14:12;94704.50;;;31.34;100.00
70745;BME280;59284;31.390;34.904;2022-11-24T09:16:38;94697.78;;;31.58;100.00
70745;BME280;59284;31.390;34.904;2022-11-24T09:19:05;94698.03;;;28.50;100.00
70745;BME280;59284;31.390;34.904;2022-11-24T09:21:33;94677.97;;;29.74;100.00
70745;BME280;59284;31.390;34.904;2022-11-24T09:24:02;94686.88;;;27.75;100.00
70745;BME280;59284;31.390;34.904;2022-11-24T09:26:29;94675.13;;;28.53;100.00
70745;BME280;59284;31.390;34.904;2022-11-24T09:28:57;94683.03;;;31.50;100.00
70745;BME280;59284;31.390;34.904;2022-11-24T09:31:26;94671.09;;;31.09;100.00
70745;BME280;59284;31.390;34.904;2022-11-24T09:33:52;94681.47;;;31.07;100.00
70745;BME280;59284;31.390;34.904;2022-11-24T09:36:18;94660.91;;;29.06;100.00
70745;BME280;59284;31.390;34.904;2022-11-24T09:38:43;94662.81;;;26.74;100.00
70745;BME280;59284;31.390;34.904;2022-11-24T09:49:21;94653.31;;;26.22;100.00
70745;BME280;59284;31.390;34.904;2022-11-24T09:51:51;94654.88;;;26.16;100.00
70745;BME280;59284;31.390;34.904;2022-11-24T09:54:21;94645.16;;;27.62;100.00
70745;BME280;59284;31.390;34.904;2022-11-24T09:56:50;94655.72;;;30.65;100.00
70745;BME280;59284;31.390;34.904;2022-11-24T09:59:23;94642.13;;;34.85;100.00
70745;BME280;59284;31.390;34.904;2022-11-24T10:01:50;94651.06;;;27.76;100.00
70745;BME280;59284;31.390;34.904;2022-11-24T10:06:54;94618.22;;;33.24;100.00
70745;BME280;59284;31.390;34.904;2022-11-24T10:12:34;94627.63;;;25.98;100.00
70745;BME280;59284;31.390;34.904;2022-11-24T10:15:20;94627.66;;;27.27;100.00
70745;BME280;59284;31.390;34.904;2022-11-24T10:26:44;94630.63;;;25.27;100.00
70745;BME280;59284;31.390;34.904;2022-11-24T10:29:38;94645.50;;;24.29;100.00
70745;BME280;59284;31.390;34.904;2022-11-24T10:32:10;94646.19;;;25.15;100.00
70745;BME280;59284;31.390;34.904;2022-11-24T10:34:42;94635.41;;;25.60;100.00
70745;BME280;59284;31.390;34.904;2022-11-24T10:37:35;94641.25;;;25.17;100.00
70745;BME280;59284;31.390;34.904;2022-11-24T10:40:36;94637.53;;;24.75;100.00
70745;BME280;59284;31.390;34.904;2022-11-24T10:43:02;94617.47;;;24.57;100.00
70745;BME280;59284;31.390;34.904;2022-11-24T10:45:30;94648.94;;;24.33;100.00
70745;BME280;59284;31.390;34.904;2022-11-24T10:47:57;94645.81;;;23.82;100.00
70745;BME280;59284;31.390;34.904;2022-11-24T10:50:26;94642.06;;;23.94;100.00
70745;BME280;59284;31.390;34.904;2022-11-24T10:58:33;94630.31;;;23.91;100.00
70745;BME280;59284;31.390;34.904;2022-11-24T11:01:17;94626.03;;;23.41;100.00
70745;BME280;59284;31.390;34.904;2022-11-24T11:04:02;94612.88;;;23.80;100.00
70745;BME280;59284;31.390;34.904;2022-11-24T11:06:42;94617.13;;;24.19;100.00
70745;BME280;59284;31.390;34.904;2022-11-24T11:11:35;94613.59;;;23.59;100.00
70745;BME280;59284;31.390;34.904;2022-11-24T11:14:05;94615.44;;;23.41;100.00
70745;BME280;59284;31.390;34.904;2022-11-24T11:19:43;94610.63;;;23.99;100.00
70745;BME280;59284;31.390;34.904;2022-11-24T11:24:35;94596.19;;;23.54;100.00
70745;BME280;59284;31.390;34.904;2022-11-24T11:27:19;94605.88;;;23.26;100.00
70745;BME280;59284;31.390;34.904;2022-11-24T11:29:46;94605.31;;;23.74;100.00
70745;BME280;59284;31.390;34.904;2022-11-24T11:34:44;94605.31;;;23.89;100.00
70745;BME280;59284;31.390;34.904;2022-11-24T11:37:11;94603.06;;;23.87;100.00
70745;BME280;59284;31.390;34.904;2022-11-24T11:39:48;94599.31;;;24.20;100.00
70745;BME280;59284;31.390;34.904;2022-11-24T11:42:32;94601.22;;;24.30;100.00
70745;BME280;59284;31.390;34.904;2022-11-24T11:45:20;94594.00;;;23.99;100.00
70745;BME280;59284;31.390;34.904;2022-11-24T11:50:51;94584.09;;;24.91;100.00
70745;BME280;59284;31.390;34.904;2022-11-24T12:12:58;94565.50;;;27.41;100.00
70745;BME280;59284;31.390;34.904;2022-11-24T12:15:45;94574.63;;;24.69;100.00
70745;BME280;59284;31.390;34.904;2022-11-24T12:18:56;94589.75;;;25.00;100.00
70745;BME280;59284;31.390;34.904;2022-11-24T12:21:17;94580.75;;;25.66;100.00
70745;BME280;59284;31.390;34.904;2022-11-24T12:24:00;94574.72;;;25.62;100.00
70745;BME280;59284;31.390;34.904;2022-11-24T12:26:48;94588.72;;;24.23;100.00
70745;BME280;59284;31.390;34.904;2022-11-24T12:35:02;94596.19;;;23.65;100.00
70745;BME280;59284;31.390;34.904;2022-11-24T12:43:39;94596.19;;;23.58;100.00
70745;BME280;59284;31.390;34.904;2022-11-24T12:48:56;94601.69;;;23.11;100.00
70745;BME280;59284;31.390;34.904;2022-11-24T12:51:32;94601.38;;;22.58;100.00
70745;BME280;59284;31.390;34.904;2022-11-24T12:54:02;94607.88;;;22.67;100.00
70745;BME280;59284;31.390;34.904;2022-11-24T12:57:06;94624.56;;;22.82;100.00
70745;BME280;59284;31.390;34.904;2022-11-24T13:02:21;94633.41;;;22.49;100.00
70745;BME280;59284;31.390;34.904;2022-11-24T13:05:20;94619.25;;;22.24;100.00
70745;BME280;59284;31.390;34.904;2022-11-24T13:07:48;94635.25;;;22.45;100.00
70745;BME280;59284;31.390;34.904;2022-11-24T13:12:57;94612.94;;;22.97;100.00
70745;BME280;59284;31.390;34.904;2022-11-24T13:15:24;94622.31;;;22.80;100.00
70745;BME280;59284;31.390;34.904;2022-11-24T13:17:50;94616.53;;;22.61;100.00
70745;BME280;59284;31.390;34.904;2022-11-24T13:22:55;94602.78;;;23.06;100.00
70745;BME280;59284;31.390;34.904;2022-11-24T13:25:24;94596.19;;;23.58;100.00
70745;BME280;59284;31.390;34.904;2022-11-24T13:27:52;94590.94;;;22.24;100.00
70745;BME280;59284;31.390;34.904;2022-11-24T13:35:37;94609.41;;;22.75;100.00
70745;BME280;59284;31.390;34.904;2022-11-24T13:41:09;94611.03;;;21.89;100.00
70745;BME280;59284;31.390;34.904;2022-11-24T13:43:36;94610.97;;;21.15;100.00
70745;BME280;59284;31.390;34.904;2022-11-24T13:46:02;94621.31;;;21.64;100.00
70745;BME280;59284;31.390;34.904;2022-11-24T13:53:44;94621.19;;;21.53;100.00
70745;BME280;59284;31.390;34.904;2022-11-24T14:01:09;94625.88;;;21.34;100.00
70745;BME280;59284;31.390;34.904;2022-11-24T14:04:13;94621.41;;;21.75;100.00
70745;BME280;59284;31.390;34.904;2022-11-24T14:09:50;94634.06;;;21.25;100.00
70745;BME280;59284;31.390;34.904;2022-11-24T14:12:20;94635.09;;;20.16;100.00
70745;BME280;59284;31.390;34.904;2022-11-24T14:14:50;94648.44;;;21.02;100.00
70745;BME280;59284;31.390;34.904;2022-11-24T14:17:20;94642.81;;;20.77;100.00
70745;BME280;59284;31.390;34.904;2022-11-24T14:19:57;94642.56;;;21.12;100.00
70745;BME280;59284;31.390;34.904;2022-11-24T14:22:33;94631.97;;;20.82;100.00
70745;BME280;59284;31.390;34.904;2022-11-24T14:25:01;94642.31;;;20.94;100.00
70745;BME280;59284;31.390;34.904;2022-11-24T14:27:38;94643.75;;;21.47;100.00
70745;BME280;59284;31.390;34.904;2022-11-24T14:30:24;94647.78;;;21.38;100.00
70745;BME280;59284;31.390;34.904;2022-11-24T14:35:28;94641.88;;;21.18;100.00
70745;BME280;59284;31.390;34.904;2022-11-24T14:37:54;94650.75;;;20.51;100.00
70745;BME280;59284;31.390;34.904;2022-11-24T14:40:40;94641.75;;;21.71;100.00
70745;BME280;59284;31.390;34.904;2022-11-24T14:43:27;94646.94;;;21.63;100.00
70745;BME280;59284;31.390;34.904;2022-11-24T14:46:02;94648.06;;;21.29;100.00
70745;BME280;59284;31.390;34.904;2022-11-24T14:48:31;94645.97;;;21.12;100.00